Time;durP1;ratioP1;P1;durP2;ratioP2;P2;SDS_P1;SDS_P2;PMS_P1;PMS_P2;Temp;Humidity;BMP_temperature;BMP_pressure;BME280_temperature;BME280_humidity;BME280_pressure;Samples;Min_cycle;Max_cycle;Signal;HPM_P1;HPM_P2
2022/11/03 00:01:37;;;;;;;8.50;7.63;;;9.70;1.00;;;;;;4889420;29;20486;-79
2022/11/03 00:04:06;;;;;;;8.40;7.40;;;9.60;1.00;;;;;;4890503;29;20487;-79
2022/11/03 00:06:34;;;;;;;8.57;7.33;;;9.70;1.00;;;;;;4886230;29;20546;-81
2022/11/03 00:09:05;;;;;;;8.57;7.87;;;9.50;6.10;;;;;;4881587;29;20556;-78
2022/11/03 00:11:34;;;;;;;8.82;7.95;;;9.50;1.00;;;;;;4881764;29;20493;-80
2022/11/03 00:14:02;;;;;;;8.57;7.50;;;9.20;99.90;;;;;;4879141;29;20329;-78
2022/11/03 00:16:31;;;;;;;11.37;7.80;;;9.30;99.90;;;;;;4884747;29;20459;-79
2022/11/03 00:19:00;;;;;;;8.60;7.07;;;9.30;99.90;;;;;;4881744;29;20546;-79
2022/11/03 00:21:28;;;;;;;10.63;7.23;;;9.40;99.90;;;;;;4881319;29;20589;-79
2022/11/03 00:23:57;;;;;;;6.27;5.77;;;9.50;99.90;;;;;;4879769;29;20574;-79
2022/11/03 00:26:26;;;;;;;8.80;7.10;;;9.50;99.90;;;;;;4881502;29;21066;-82
2022/11/03 00:28:56;;;;;;;6.60;6.00;;;9.50;99.90;;;;;;4884084;29;20959;-81
2022/11/03 00:31:26;;;;;;;10.90;6.03;;;9.60;99.90;;;;;;4884915;29;20550;-79
2022/11/03 00:33:55;;;;;;;6.47;5.27;;;9.60;99.90;;;;;;4880891;29;20491;-80
2022/11/03 00:36:26;;;;;;;6.33;5.83;;;9.60;26.00;;;;;;4884761;29;20565;-79
2022/11/03 00:38:54;;;;;;;6.40;6.00;;;9.60;12.20;;;;;;4896843;29;20576;-79
2022/11/03 00:41:23;;;;;;;5.70;5.23;;;9.60;18.10;;;;;;4880277;29;20523;-80
2022/11/03 00:43:52;;;;;;;5.57;4.83;;;9.60;99.90;;;;;;4885327;29;20595;-79
2022/11/03 00:46:22;;;;;;;6.07;5.47;;;9.80;99.90;;;;;;4884774;29;21041;-79
2022/11/03 00:48:50;;;;;;;6.33;4.80;;;9.60;1.00;;;;;;4883503;29;20498;-79
2022/11/03 00:51:21;;;;;;;6.03;5.53;;;9.60;1.00;;;;;;4880842;29;20455;-80
2022/11/03 00:53:51;;;;;;;5.23;4.90;;;9.40;90.60;;;;;;4881565;29;20518;-79
2022/11/03 00:56:21;;;;;;;5.90;5.50;;;9.40;99.90;;;;;;4880897;29;20469;-81
2022/11/03 00:58:51;;;;;;;5.07;4.53;;;9.30;75.80;;;;;;4880169;29;20597;-82
2022/11/03 01:01:21;;;;;;;5.10;4.80;;;9.30;1.00;;;;;;4881960;29;20729;-78
2022/11/03 01:06:50;;;;;;;6.40;4.50;;;9.20;46.10;;;;;;4883287;29;20556;-80
2022/11/03 01:09:21;;;;;;;4.53;4.33;;;9.30;99.90;;;;;;4881555;29;21109;-79
2022/11/03 01:11:54;;;;;;;4.27;3.87;;;9.30;99.90;;;;;;4880359;29;20526;-79
2022/11/03 01:14:23;;;;;;;10.93;4.70;;;9.30;99.90;;;;;;4881684;29;20494;-79
2022/11/03 01:16:52;;;;;;;4.23;3.93;;;9.40;99.90;;;;;;4882932;29;20538;-77
2022/11/03 01:19:20;;;;;;;4.33;3.90;;;9.30;1.00;;;;;;4881812;29;20837;-80
2022/11/03 01:21:48;;;;;;;3.70;3.40;;;9.10;14.10;;;;;;4877327;29;20515;-80
2022/11/03 01:24:16;;;;;;;4.60;4.00;;;9.20;16.80;;;;;;4880905;29;20534;-80
2022/11/03 01:26:46;;;;;;;6.40;4.20;;;9.10;1.00;;;;;;4884240;29;20464;-78
2022/11/03 01:29:14;;;;;;;4.60;4.07;;;9.00;1.00;;;;;;4879342;29;20562;-80
2022/11/03 01:31:42;;;;;;;3.90;3.70;;;9.00;1.00;;;;;;4879072;29;20962;-80
2022/11/03 01:34:15;;;;;;;4.00;3.70;;;9.00;99.70;;;;;;4879744;29;20488;-81
2022/11/03 01:36:44;;;;;;;5.30;4.00;;;8.90;89.30;;;;;;4882081;29;20467;-80
2022/11/03 01:39:15;;;;;;;4.27;3.97;;;9.00;99.90;;;;;;4884003;29;20960;-80
2022/11/03 01:41:46;;;;;;;3.73;3.50;;;8.90;1.00;;;;;;4883862;29;20480;-81
2022/11/03 01:44:31;;;;;;;4.30;4.00;;;8.90;9.30;;;;;;4883248;29;20494;-81
2022/11/03 01:47:04;;;;;;;5.23;4.07;;;9.00;1.00;;;;;;4885083;29;20471;-80
2022/11/03 01:49:36;;;;;;;4.33;4.00;;;9.10;1.00;;;;;;4881608;29;20477;-81
2022/11/03 01:52:09;;;;;;;4.77;4.47;;;9.00;1.00;;;;;;4882402;29;20450;-79
2022/11/03 01:54:39;;;;;;;7.80;5.20;;;9.00;99.90;;;;;;4882195;29;21007;-79
2022/11/03 01:57:13;;;;;;;5.07;4.47;;;8.90;99.90;;;;;;4886183;29;20517;-81
2022/11/03 01:59:42;;;;;;;4.50;4.10;;;8.90;99.90;;;;;;4881758;29;20544;-81
2022/11/03 02:02:11;;;;;;;7.73;4.47;;;9.10;1.00;;;;;;4880496;29;20482;-81
2022/11/03 02:04:41;;;;;;;5.00;4.27;;;9.10;99.90;;;;;;4883868;29;20573;-80
2022/11/03 02:07:14;;;;;;;4.87;4.33;;;9.00;99.90;;;;;;4881610;29;20858;-81
2022/11/03 02:09:42;;;;;;;4.00;3.63;;;9.10;99.90;;;;;;4881563;29;20498;-79
2022/11/03 02:12:13;;;;;;;4.30;4.03;;;9.00;54.00;;;;;;4881880;29;20561;-79
2022/11/03 02:14:48;;;;;;;4.77;4.47;;;8.90;12.40;;;;;;4881115;29;20576;-79
2022/11/03 02:17:19;;;;;;;4.90;4.50;;;8.70;1.00;;;;;;4883759;29;20571;-81
2022/11/03 02:19:51;;;;;;;5.07;4.60;;;8.70;13.90;;;;;;4881763;29;20482;-81
2022/11/03 02:22:52;;;;;;;6.43;4.70;;;8.70;15.60;;;;;;4880614;29;20482;-80
2022/11/03 02:25:37;;;;;;;4.90;4.50;;;8.50;99.90;;;;;;4879301;29;20600;-79
2022/11/03 02:28:06;;;;;;;4.50;4.10;;;8.50;99.90;;;;;;4880875;29;21340;-79
2022/11/03 02:30:39;;;;;;;4.57;4.10;;;8.60;7.80;;;;;;4879036;29;20956;-80
2022/11/03 02:33:17;;;;;;;3.93;3.73;;;8.40;51.20;;;;;;4880993;29;20472;-80
2022/11/03 02:35:51;;;;;;;5.00;4.20;;;8.40;99.90;;;;;;4880206;29;21141;-79
2022/11/03 02:38:22;;;;;;;3.97;3.67;;;8.30;99.90;;;;;;4879732;29;20479;-80
2022/11/03 02:40:55;;;;;;;4.20;3.90;;;8.40;92.30;;;;;;4881747;29;20486;-80
2022/11/03 02:43:25;;;;;;;4.60;4.30;;;8.30;99.90;;;;;;4880600;29;20531;-79
2022/11/03 02:45:55;;;;;;;5.27;4.63;;;8.40;99.90;;;;;;4879564;29;20897;-80
2022/11/03 02:48:23;;;;;;;4.57;4.17;;;8.40;99.90;;;;;;4881936;29;20553;-80
2022/11/03 02:50:51;;;;;;;4.93;4.50;;;8.30;99.90;;;;;;4880605;29;21048;-80
2022/11/03 02:53:20;;;;;;;8.10;4.80;;;8.50;52.80;;;;;;4877172;29;21254;-79
2022/11/03 02:55:59;;;;;;;5.20;4.50;;;8.50;99.90;;;;;;4882714;29;22828;-79
2022/11/03 02:58:34;;;;;;;4.00;3.60;;;8.50;99.90;;;;;;4882132;29;20557;-79
2022/11/03 03:01:10;;;;;;;6.07;4.40;;;8.50;99.90;;;;;;4881430;29;20555;-80
2022/11/03 03:03:42;;;;;;;6.77;5.20;;;8.50;99.90;;;;;;4883805;29;20496;-79
2022/11/03 03:06:15;;;;;;;5.67;5.10;;;8.40;99.90;;;;;;4881749;29;20557;-79
2022/11/03 03:08:46;;;;;;;5.80;5.30;;;8.40;99.90;;;;;;4880783;29;20522;-81
2022/11/03 03:11:35;;;;;;;4.83;4.40;;;8.50;99.90;;;;;;4881163;29;20459;-78
2022/11/03 03:14:11;;;;;;;4.80;4.43;;;8.50;99.90;;;;;;4880269;29;20481;-79
2022/11/03 03:16:52;;;;;;;4.80;4.40;;;8.50;99.90;;;;;;4884014;29;20965;-80
2022/11/03 03:19:30;;;;;;;4.03;3.73;;;8.50;99.90;;;;;;4885079;29;20998;-79
2022/11/03 03:22:03;;;;;;;4.43;3.97;;;8.50;99.90;;;;;;4883951;29;20548;-79
2022/11/03 03:24:38;;;;;;;4.43;4.00;;;8.50;99.90;;;;;;4880593;29;20544;-80
2022/11/03 03:27:12;;;;;;;5.83;4.50;;;8.40;99.90;;;;;;4879445;29;20572;-78
2022/11/03 03:29:46;;;;;;;5.97;4.00;;;8.50;99.90;;;;;;4881929;29;20591;-78
2022/11/03 03:32:19;;;;;;;5.47;4.70;;;8.50;99.90;;;;;;4881033;29;20942;-78
2022/11/03 03:34:49;;;;;;;4.50;4.10;;;8.40;99.90;;;;;;4877345;29;20488;-79
2022/11/03 03:37:19;;;;;;;3.73;3.43;;;8.40;99.90;;;;;;4883657;29;20455;-78
2022/11/03 03:39:51;;;;;;;7.00;4.20;;;8.40;99.90;;;;;;4875333;29;20463;-79
2022/11/03 03:42:24;;;;;;;4.00;3.70;;;8.40;99.90;;;;;;4877793;29;20485;-78
2022/11/03 03:44:53;;;;;;;4.03;3.73;;;8.50;99.90;;;;;;4882518;29;20493;-78
2022/11/03 03:47:25;;;;;;;5.47;4.97;;;8.40;99.90;;;;;;4885020;29;20463;-78
2022/11/03 03:49:53;;;;;;;5.50;4.00;;;8.40;99.90;;;;;;4885978;29;21009;-79
2022/11/03 03:52:22;;;;;;;5.53;4.50;;;8.40;99.90;;;;;;4886000;29;20553;-80
2022/11/03 03:54:50;;;;;;;6.00;4.40;;;8.40;99.90;;;;;;4881490;29;20483;-80
2022/11/03 03:57:23;;;;;;;4.67;4.33;;;8.40;99.90;;;;;;4882579;29;20512;-80
2022/11/03 03:59:51;;;;;;;5.00;4.53;;;8.30;99.90;;;;;;4886252;29;20543;-79
2022/11/03 04:02:19;;;;;;;4.27;3.90;;;8.30;99.90;;;;;;4885197;29;20525;-80
2022/11/03 04:04:47;;;;;;;5.90;4.60;;;8.30;99.90;;;;;;4885487;29;20505;-79
2022/11/03 04:10:08;;;;;;;5.80;4.77;;;8.20;99.90;;;;;;4883866;29;20556;-81
2022/11/03 04:24:00;;;;;;;5.20;4.80;;;8.10;99.90;;;;;;4882984;29;20863;-79
2022/11/03 04:26:28;;;;;;;5.57;4.93;;;8.10;99.90;;;;;;4884869;29;20472;-80
2022/11/03 04:28:58;;;;;;;4.43;4.07;;;8.20;99.90;;;;;;4885800;29;20467;-79
2022/11/03 04:31:28;;;;;;;3.97;3.77;;;8.20;99.90;;;;;;4880653;29;20554;-78
2022/11/03 04:33:57;;;;;;;4.80;4.40;;;8.20;99.90;;;;;;4880017;29;20563;-79
2022/11/03 04:36:26;;;;;;;4.97;4.47;;;8.20;82.00;;;;;;4882062;29;21065;-79
2022/11/03 04:38:54;;;;;;;5.30;4.87;;;8.30;60.60;;;;;;4891723;29;20548;-80
2022/11/03 04:41:24;;;;;;;4.90;4.60;;;8.30;60.10;;;;;;4882332;29;20470;-80
2022/11/03 04:43:56;;;;;;;4.57;4.17;;;8.20;18.30;;;;;;4902118;29;20529;-80
2022/11/03 04:46:27;;;;;;;4.17;3.90;;;8.10;23.20;;;;;;4881928;29;20558;-81
2022/11/03 04:48:59;;;;;;;5.13;4.00;;;8.00;27.90;;;;;;4883145;29;20558;-79
2022/11/03 04:51:29;;;;;;;4.77;4.27;;;7.90;66.80;;;;;;4882515;29;20545;-79
2022/11/03 04:54:03;;;;;;;4.27;3.97;;;8.00;99.90;;;;;;4882418;29;20573;-78
2022/11/03 04:56:31;;;;;;;6.60;5.60;;;8.00;99.90;;;;;;4883639;29;20563;-80
2022/11/03 04:58:59;;;;;;;5.93;5.37;;;8.20;97.70;;;;;;4887610;29;20461;-81
2022/11/03 05:01:29;;;;;;;5.43;5.10;;;8.10;26.70;;;;;;4881397;29;21078;-80
2022/11/03 05:03:58;;;;;;;5.47;5.07;;;8.00;21.30;;;;;;4886387;29;20489;-79
2022/11/03 05:06:28;;;;;;;4.50;4.10;;;7.90;99.90;;;;;;4884754;29;20979;-79
2022/11/03 05:09:00;;;;;;;4.90;4.63;;;8.00;79.00;;;;;;4900731;29;20491;-79
2022/11/03 05:11:32;;;;;;;5.20;4.83;;;7.90;52.20;;;;;;4888773;29;20455;-80
2022/11/03 05:14:04;;;;;;;4.37;4.17;;;7.80;99.90;;;;;;4884486;29;21055;-81
2022/11/03 05:16:34;;;;;;;4.63;4.23;;;7.80;99.90;;;;;;4884579;29;20815;-79
2022/11/03 05:19:03;;;;;;;5.17;4.77;;;7.80;29.50;;;;;;4884928;29;20530;-78
2022/11/03 05:21:38;;;;;;;5.40;4.50;;;7.80;64.10;;;;;;4886058;29;20989;-80
2022/11/03 05:24:13;;;;;;;5.30;5.00;;;7.60;99.90;;;;;;4881703;29;21097;-79
2022/11/03 05:26:43;;;;;;;5.00;4.60;;;7.60;99.90;;;;;;4887686;29;20456;-77
2022/11/03 05:29:15;;;;;;;4.33;4.00;;;7.70;76.80;;;;;;4889128;29;20467;-83
2022/11/03 05:31:47;;;;;;;5.03;4.40;;;7.80;26.30;;;;;;4883450;29;20463;-81
2022/11/03 05:34:35;;;;;;;5.10;4.70;;;7.70;23.80;;;;;;4883195;29;20490;-79
2022/11/03 05:37:20;;;;;;;4.97;4.63;;;7.60;77.50;;;;;;4881612;29;21192;-78
2022/11/03 05:39:56;;;;;;;5.20;4.80;;;7.60;99.90;;;;;;4880968;29;20527;-79
2022/11/03 05:42:34;;;;;;;6.03;4.47;;;7.60;99.90;;;;;;4879889;29;20465;-76
2022/11/03 05:45:04;;;;;;;4.90;4.40;;;7.60;99.90;;;;;;4884665;29;20883;-77
2022/11/03 05:47:37;;;;;;;4.70;4.30;;;7.70;99.90;;;;;;4880390;29;21386;-79
2022/11/03 05:50:16;;;;;;;6.30;5.30;;;7.80;99.90;;;;;;4882231;29;20500;-78
2022/11/03 05:52:46;;;;;;;4.50;4.20;;;7.70;99.90;;;;;;4883842;29;21074;-78
2022/11/03 05:55:27;;;;;;;7.07;5.30;;;7.80;52.60;;;;;;4885221;29;20544;-78
2022/11/03 05:57:58;;;;;;;5.30;4.93;;;7.80;99.90;;;;;;4876249;29;20449;-79
2022/11/03 06:00:29;;;;;;;6.60;5.23;;;7.80;69.10;;;;;;4888133;29;20977;-78
2022/11/03 06:03:00;;;;;;;5.17;4.87;;;7.70;74.70;;;;;;4882425;29;20836;-80
2022/11/03 06:05:32;;;;;;;5.13;4.60;;;7.70;96.90;;;;;;4884058;29;20514;-78
2022/11/03 06:08:02;;;;;;;5.33;4.87;;;7.60;99.90;;;;;;4883989;29;20917;-79
2022/11/03 06:10:35;;;;;;;6.67;5.60;;;7.50;99.90;;;;;;4886745;29;20956;-79
2022/11/03 06:13:11;;;;;;;5.33;4.83;;;7.60;99.90;;;;;;4880981;29;20949;-77
2022/11/03 06:15:41;;;;;;;5.27;4.50;;;7.70;99.90;;;;;;4882188;29;20457;-80
2022/11/03 06:18:16;;;;;;;5.20;4.90;;;7.60;99.90;;;;;;4884212;29;20563;-79
2022/11/03 06:20:52;;;;;;;5.43;5.03;;;7.60;99.90;;;;;;4883539;29;21000;-82
2022/11/03 06:23:21;;;;;;;5.50;5.00;;;7.70;58.60;;;;;;4885217;29;20466;-78
2022/11/03 06:25:52;;;;;;;5.27;4.60;;;7.70;99.90;;;;;;4882376;29;21049;-79
2022/11/03 06:28:24;;;;;;;7.43;4.83;;;7.70;94.00;;;;;;4884151;29;20467;-80
2022/11/03 06:30:53;;;;;;;6.00;5.40;;;7.60;99.90;;;;;;4881621;29;20493;-79
2022/11/03 06:33:26;;;;;;;12.57;7.10;;;7.60;1.00;;;;;;4882959;29;20466;-78
2022/11/03 06:35:58;;;;;;;9.97;6.47;;;7.70;1.00;;;;;;4884487;29;21052;-79
2022/11/03 06:38:29;;;;;;;6.43;5.73;;;7.80;1.00;;;;;;4883379;29;20561;-80
2022/11/03 06:40:58;;;;;;;6.87;6.30;;;8.10;53.00;;;;;;4883337;29;20532;-80
2022/11/03 06:43:31;;;;;;;9.87;7.80;;;8.20;1.00;;;;;;4890654;29;20488;-79
2022/11/03 06:46:05;;;;;;;8.90;8.00;;;8.30;99.90;;;;;;4886717;29;21062;-82
2022/11/03 06:48:35;;;;;;;8.50;7.73;;;8.30;1.00;;;;;;4884669;29;20483;-80
2022/11/03 06:51:14;;;;;;;7.83;6.10;;;8.30;99.90;;;;;;4884546;29;20556;-79
2022/11/03 06:53:42;;;;;;;8.77;5.83;;;8.30;99.90;;;;;;4884224;29;20555;-80
2022/11/03 06:56:15;;;;;;;6.70;6.20;;;8.30;99.90;;;;;;4882678;29;20477;-79
2022/11/03 06:58:44;;;;;;;5.87;5.37;;;8.30;99.90;;;;;;4884069;29;21037;-79
2022/11/03 07:01:15;;;;;;;9.63;5.30;;;8.30;99.90;;;;;;4882114;29;20917;-79
2022/11/03 07:03:46;;;;;;;5.90;5.40;;;8.30;99.90;;;;;;4878072;29;20565;-80
2022/11/03 07:06:23;;;;;;;9.20;6.43;;;8.50;99.90;;;;;;4880619;29;20513;-80
2022/11/03 07:08:53;;;;;;;6.40;5.90;;;8.60;99.90;;;;;;4882696;29;20531;-80
2022/11/03 07:11:24;;;;;;;6.60;6.00;;;8.60;99.90;;;;;;4879614;29;20472;-79
2022/11/03 07:13:55;;;;;;;7.30;6.60;;;8.60;99.90;;;;;;4883957;29;20487;-80
2022/11/03 07:16:28;;;;;;;9.10;7.07;;;8.70;1.00;;;;;;4883389;29;20454;-80
2022/11/03 07:18:59;;;;;;;17.23;15.40;;;8.80;99.90;;;;;;4885889;29;20475;-83
2022/11/03 07:21:38;;;;;;;10.47;9.13;;;9.00;99.90;;;;;;4890734;29;20573;-80
2022/11/03 07:24:16;;;;;;;9.20;6.80;;;9.30;1.00;;;;;;4891202;29;21018;-82
2022/11/03 07:26:44;;;;;;;9.37;8.50;;;9.60;1.00;;;;;;4888702;29;20451;-82
2022/11/03 07:29:21;;;;;;;9.77;7.53;;;9.90;1.00;;;;;;4895770;29;20461;-81
2022/11/03 07:31:51;;;;;;;7.30;6.63;;;10.00;99.90;;;;;;4900546;29;20500;-80
2022/11/03 07:34:25;;;;;;;6.17;5.60;;;10.40;99.90;;;;;;4893886;29;20479;-83
2022/11/03 07:36:56;;;;;;;7.50;6.90;;;10.40;99.90;;;;;;4889729;29;20501;-80
2022/11/03 07:39:29;;;;;;;9.03;6.27;;;10.30;99.90;;;;;;4889743;29;20781;-80
2022/11/03 07:41:57;;;;;;;8.70;6.97;;;10.30;99.90;;;;;;4887982;29;20466;-83
2022/11/03 07:44:26;;;;;;;10.23;9.30;;;10.40;99.90;;;;;;4884806;29;20550;-82
2022/11/03 07:46:54;;;;;;;7.90;7.10;;;10.50;99.90;;;;;;4891642;29;20534;-80
2022/11/03 07:49:27;;;;;;;15.73;13.43;;;10.60;99.90;;;;;;4886369;29;20460;-81
2022/11/03 07:51:58;;;;;;;31.03;21.03;;;10.50;99.90;;;;;;4883595;29;20565;-80
2022/11/03 07:54:30;;;;;;;12.97;11.50;;;10.60;99.90;;;;;;4886211;29;20514;-80
2022/11/03 07:57:00;;;;;;;13.47;12.17;;;10.70;99.90;;;;;;4893166;29;20509;-81
2022/11/03 07:59:32;;;;;;;7.33;6.00;;;10.70;99.90;;;;;;4895830;29;20466;-81
2022/11/03 08:02:01;;;;;;;6.13;5.60;;;10.70;99.90;;;;;;4895376;29;20531;-80
2022/11/03 08:04:33;;;;;;;13.43;9.33;;;10.90;99.90;;;;;;4890845;29;20550;-79
2022/11/03 08:07:02;;;;;;;12.33;10.23;;;10.80;99.90;;;;;;4893070;29;20539;-80
2022/11/03 08:09:30;;;;;;;23.17;16.73;;;10.80;99.90;;;;;;4895556;29;20502;-80
2022/11/03 08:11:59;;;;;;;12.47;8.60;;;11.00;99.90;;;;;;4892055;29;20456;-82
2022/11/03 08:14:27;;;;;;;36.60;25.87;;;11.10;99.90;;;;;;4898813;29;20514;-81
2022/11/03 08:16:55;;;;;;;26.30;20.60;;;11.10;99.90;;;;;;4891962;29;20467;-80
2022/11/03 08:19:23;;;;;;;27.03;21.77;;;11.30;99.90;;;;;;4895914;29;20616;-80
2022/11/03 08:21:53;;;;;;;13.00;11.60;;;11.50;99.90;;;;;;4887120;29;20460;-82
2022/11/03 08:24:21;;;;;;;11.20;10.13;;;11.40;99.90;;;;;;4886487;29;20486;-81
2022/11/03 08:26:49;;;;;;;7.80;7.00;;;11.60;99.90;;;;;;4887658;29;20451;-80
2022/11/03 08:29:17;;;;;;;6.93;6.60;;;11.80;76.30;;;;;;4887099;29;20456;-80
2022/11/03 08:31:45;;;;;;;6.93;6.33;;;11.60;21.80;;;;;;4884978;29;20551;-82
2022/11/03 08:34:13;;;;;;;8.50;6.03;;;11.60;19.20;;;;;;4881875;29;20480;-81
2022/11/03 08:36:41;;;;;;;6.17;5.77;;;11.60;17.30;;;;;;4891513;29;20462;-82
2022/11/03 08:39:11;;;;;;;5.90;5.40;;;11.70;25.90;;;;;;4890598;29;20566;-81
2022/11/03 08:41:39;;;;;;;6.33;6.03;;;11.70;18.10;;;;;;4884222;29;20500;-81
2022/11/03 08:44:07;;;;;;;6.60;6.10;;;11.80;2.80;;;;;;4888175;29;20530;-82
2022/11/03 08:46:36;;;;;;;7.40;6.73;;;11.80;52.50;;;;;;4894302;29;20499;-81
2022/11/03 08:49:04;;;;;;;6.93;6.53;;;11.90;4.90;;;;;;4894148;29;20979;-82
2022/11/03 08:51:32;;;;;;;7.73;6.93;;;11.80;1.00;;;;;;4886790;29;22142;-82
2022/11/03 08:54:00;;;;;;;6.93;6.30;;;11.80;4.70;;;;;;4889211;29;20511;-82
2022/11/03 08:56:30;;;;;;;7.47;6.97;;;12.10;1.00;;;;;;4891742;29;20481;-81
2022/11/03 08:58:58;;;;;;;7.23;6.70;;;12.10;1.00;;;;;;4889202;29;20473;-83
2022/11/03 09:01:26;;;;;;;7.07;6.47;;;12.20;1.00;;;;;;4886154;29;20513;-82
2022/11/03 09:03:54;;;;;;;6.90;6.40;;;12.30;1.00;;;;;;4887501;29;21017;-81
2022/11/03 09:06:22;;;;;;;8.40;7.50;;;12.40;1.00;;;;;;4890368;29;20526;-81
2022/11/03 09:08:50;;;;;;;6.33;5.97;;;12.50;1.00;;;;;;4890834;29;20476;-81
2022/11/03 09:11:40;;;;;;;6.53;6.13;;;12.60;1.00;;;;;;4888765;29;20460;-80
2022/11/03 09:14:08;;;;;;;6.50;6.10;;;12.90;1.00;;;;;;4887394;29;20492;-82
2022/11/03 09:16:37;;;;;;;7.77;7.30;;;13.00;1.00;;;;;;4885473;29;20549;-82
2022/11/03 09:19:05;;;;;;;7.13;6.73;;;13.20;1.00;;;;;;4888964;29;20514;-81
2022/11/03 09:21:33;;;;;;;7.60;7.13;;;13.40;1.00;;;;;;4894738;29;20470;-81
2022/11/03 09:24:01;;;;;;;6.27;5.97;;;13.60;1.00;;;;;;4889181;29;21102;-81
2022/11/03 09:26:29;;;;;;;7.33;6.07;;;13.90;1.00;;;;;;4892539;29;21290;-82
2022/11/03 09:28:59;;;;;;;7.40;6.37;;;13.70;1.00;;;;;;4886925;29;21018;-83
2022/11/03 09:31:28;;;;;;;8.20;6.70;;;13.70;1.00;;;;;;4889037;29;20517;-83
2022/11/03 09:33:57;;;;;;;8.13;7.53;;;13.30;1.00;;;;;;4895766;29;21145;-82
2022/11/03 09:36:25;;;;;;;6.53;6.03;;;13.10;1.00;;;;;;4885501;29;20498;-82
2022/11/03 09:38:53;;;;;;;6.43;6.13;;;13.10;1.00;;;;;;4889254;29;20512;-82
2022/11/03 09:41:21;;;;;;;7.40;6.80;;;13.10;1.00;;;;;;4887130;29;20487;-82
2022/11/03 09:44:11;;;;;;;6.97;6.50;;;13.10;1.00;;;;;;4882394;29;20507;-83
2022/11/03 09:46:39;;;;;;;7.13;6.73;;;13.10;1.00;;;;;;4882034;29;20514;-82
2022/11/03 09:49:08;;;;;;;6.97;6.47;;;12.90;1.00;;;;;;4885476;29;20572;-82
2022/11/03 09:51:36;;;;;;;7.17;6.57;;;13.00;1.00;;;;;;4887368;29;20600;-82
2022/11/03 09:54:05;;;;;;;8.17;6.43;;;13.10;1.00;;;;;;4887059;29;20548;-81
2022/11/03 09:56:36;;;;;;;7.93;7.43;;;12.90;1.00;;;;;;4886188;29;20582;-81
2022/11/03 09:59:13;;;;;;;8.47;7.80;;;12.80;1.00;;;;;;4884774;29;20489;-82
2022/11/03 10:01:42;;;;;;;8.43;7.87;;;12.90;1.00;;;;;;4884610;29;20467;-81
2022/11/03 10:04:11;;;;;;;8.37;7.80;;;12.90;1.00;;;;;;4884569;29;20488;-80
2022/11/03 10:06:40;;;;;;;7.87;7.37;;;12.80;1.00;;;;;;4886262;29;21010;-78
2022/11/03 10:09:14;;;;;;;9.10;8.20;;;12.90;1.00;;;;;;4884096;29;20456;-83
2022/11/03 10:11:43;;;;;;;9.20;8.40;;;12.80;1.00;;;;;;4886869;29;21042;-83
2022/11/03 10:14:17;;;;;;;8.50;8.10;;;12.60;1.00;;;;;;4884110;29;20531;-83
2022/11/03 10:16:52;;;;;;;7.97;7.37;;;12.70;1.00;;;;;;4884552;29;20458;-83
2022/11/03 10:19:21;;;;;;;8.23;7.63;;;12.70;1.00;;;;;;4883651;29;20648;-82
2022/11/03 10:21:49;;;;;;;9.43;8.50;;;12.60;1.00;;;;;;4882853;29;20463;-84
2022/11/03 10:24:18;;;;;;;9.00;8.23;;;12.60;1.00;;;;;;4880159;29;21148;-83
2022/11/03 10:26:47;;;;;;;8.97;8.30;;;12.70;1.00;;;;;;4882516;29;20491;-83
2022/11/03 10:29:22;;;;;;;8.73;8.13;;;12.80;1.00;;;;;;4885992;29;20468;-81
2022/11/03 10:31:52;;;;;;;7.93;7.53;;;12.70;1.00;;;;;;4884507;29;20474;-82
2022/11/03 10:34:26;;;;;;;8.77;8.20;;;12.80;1.00;;;;;;4887389;29;20477;-81
2022/11/03 10:37:22;;;;;;;8.90;8.30;;;12.70;1.00;;;;;;4884200;29;20509;-82
2022/11/03 10:39:52;;;;;;;9.33;8.53;;;12.70;1.00;;;;;;4871514;29;20468;-81
2022/11/03 10:42:22;;;;;;;8.80;8.10;;;12.90;1.00;;;;;;4886331;29;20457;-83
2022/11/03 10:44:53;;;;;;;8.97;8.27;;;13.10;1.00;;;;;;4887155;29;20504;-81
2022/11/03 10:47:31;;;;;;;8.87;8.30;;;13.20;1.00;;;;;;4889014;29;20579;-81
2022/11/03 10:49:59;;;;;;;10.17;9.67;;;13.10;1.00;;;;;;4881454;29;20471;-82
2022/11/03 10:52:30;;;;;;;10.73;10.03;;;13.60;1.00;;;;;;4886645;29;20457;-85
2022/11/03 10:54:59;;;;;;;9.67;8.97;;;13.50;1.00;;;;;;4884161;29;20517;-83
2022/11/03 10:57:28;;;;;;;9.50;8.77;;;13.70;1.00;;;;;;4889804;29;20473;-79
2022/11/03 10:59:58;;;;;;;8.90;8.30;;;13.40;1.00;;;;;;4890773;29;20538;-82
2022/11/03 11:02:30;;;;;;;8.73;8.10;;;13.40;1.00;;;;;;4889389;29;20530;-81
2022/11/03 11:05:00;;;;;;;9.03;8.10;;;13.50;1.00;;;;;;4887344;29;20581;-82
2022/11/03 11:07:33;;;;;;;9.30;8.57;;;13.30;1.00;;;;;;4890119;29;20969;-82
2022/11/03 11:10:06;;;;;;;8.00;7.70;;;13.10;1.00;;;;;;4890106;29;20510;-82
2022/11/03 11:12:35;;;;;;;9.00;8.30;;;13.20;1.00;;;;;;4888318;29;20468;-82
2022/11/03 11:15:38;;;;;;;8.37;7.77;;;13.20;1.00;;;;;;4887556;29;20525;-83
2022/11/03 11:18:06;;;;;;;8.90;8.37;;;13.30;1.00;;;;;;4902013;29;20541;-81
2022/11/03 11:20:37;;;;;;;9.37;8.77;;;13.30;1.00;;;;;;4885825;29;20476;-79
2022/11/03 11:23:45;;;;;;;9.30;8.70;;;13.20;1.00;;;;;;4885041;29;20469;-84
2022/11/03 11:26:16;;;;;;;8.90;8.30;;;13.30;1.00;;;;;;4885241;29;20482;-81
2022/11/03 11:28:46;;;;;;;7.23;6.90;;;13.40;1.00;;;;;;4888194;29;20492;-80
2022/11/03 11:31:32;;;;;;;9.53;8.90;;;13.40;1.00;;;;;;4886949;29;20556;-81
2022/11/03 11:34:37;;;;;;;8.60;8.07;;;13.50;1.00;;;;;;4887386;29;21093;-82
2022/11/03 11:37:34;;;;;;;17.87;16.30;;;13.50;1.00;;;;;;4887087;29;20549;-80
2022/11/03 11:40:03;;;;;;;8.70;8.10;;;13.50;1.00;;;;;;4890360;29;20494;-80
2022/11/03 11:42:31;;;;;;;10.57;9.43;;;13.50;1.00;;;;;;4886682;29;20537;-83
2022/11/03 11:45:06;;;;;;;8.80;7.80;;;13.50;1.00;;;;;;4886883;29;20583;-81
2022/11/03 11:47:49;;;;;;;8.70;8.20;;;13.60;1.00;;;;;;4890334;29;20488;-81
2022/11/03 11:50:28;;;;;;;10.77;10.07;;;13.60;1.00;;;;;;4890478;29;20508;-81
2022/11/03 11:52:59;;;;;;;7.80;7.50;;;13.70;1.00;;;;;;4889850;29;20460;-80
2022/11/03 11:55:40;;;;;;;8.00;7.70;;;13.70;1.00;;;;;;4888702;29;20545;-79
2022/11/03 11:58:18;;;;;;;10.50;9.90;;;13.70;1.00;;;;;;4884707;29;20916;-79
2022/11/03 12:00:55;;;;;;;8.43;7.83;;;13.80;1.00;;;;;;4886579;29;20474;-80
2022/11/03 12:03:38;;;;;;;9.00;8.53;;;13.80;1.00;;;;;;4873921;29;20599;-80
2022/11/03 12:06:08;;;;;;;9.47;8.77;;;13.70;1.00;;;;;;4886140;29;20491;-80
2022/11/03 12:08:36;;;;;;;8.50;8.10;;;13.90;1.00;;;;;;4887009;29;20494;-80
2022/11/03 12:11:06;;;;;;;9.23;8.60;;;13.90;1.00;;;;;;4891329;29;20470;-79
2022/11/03 12:13:46;;;;;;;8.13;7.63;;;13.80;1.00;;;;;;4889454;29;20576;-79
2022/11/03 12:16:31;;;;;;;9.03;8.30;;;13.80;1.00;;;;;;4888975;29;20472;-82
2022/11/03 12:19:33;;;;;;;7.83;7.43;;;13.80;1.00;;;;;;4894144;29;20466;-82
2022/11/03 12:22:03;;;;;;;8.43;7.93;;;13.80;1.00;;;;;;4894575;29;20457;-81
2022/11/03 12:24:49;;;;;;;8.13;7.73;;;13.80;1.00;;;;;;4890221;29;20545;-80
2022/11/03 12:27:38;;;;;;;9.07;8.33;;;13.90;1.00;;;;;;4892661;29;20552;-84
2022/11/03 12:30:12;;;;;;;8.03;7.73;;;13.80;1.00;;;;;;4894239;29;20566;-83
2022/11/03 12:32:40;;;;;;;7.90;7.50;;;13.80;1.00;;;;;;4893194;29;20972;-82
2022/11/03 12:35:10;;;;;;;8.87;8.47;;;13.90;1.00;;;;;;4887073;29;20615;-83
2022/11/03 12:37:39;;;;;;;8.47;8.03;;;13.80;1.00;;;;;;4903033;29;21013;-82
2022/11/03 12:40:09;;;;;;;8.53;8.20;;;13.90;1.00;;;;;;4883567;29;20473;-81
2022/11/03 12:42:37;;;;;;;7.63;7.30;;;14.00;1.00;;;;;;4883340;29;20862;-82
2022/11/03 12:45:07;;;;;;;8.00;7.50;;;14.00;1.00;;;;;;4887490;29;20496;-83
2022/11/03 12:47:35;;;;;;;8.33;7.93;;;14.00;1.00;;;;;;4886681;29;20538;-81
2022/11/03 12:50:04;;;;;;;8.50;8.00;;;14.00;1.00;;;;;;4888163;29;20843;-81
2022/11/03 12:52:32;;;;;;;8.50;8.10;;;14.00;1.00;;;;;;4883450;29;20460;-82
2022/11/03 12:55:01;;;;;;;8.27;7.87;;;13.90;1.00;;;;;;4878289;29;20545;-82
2022/11/03 12:57:30;;;;;;;7.87;7.60;;;13.90;1.00;;;;;;4883982;29;20469;-81
2022/11/03 12:59:58;;;;;;;8.57;8.07;;;13.90;1.00;;;;;;4885860;29;20468;-82
2022/11/03 13:02:26;;;;;;;7.60;7.30;;;13.90;1.00;;;;;;4882465;29;21282;-84
2022/11/03 13:04:54;;;;;;;7.80;7.50;;;13.80;1.00;;;;;;4883589;29;20936;-83
2022/11/03 13:07:23;;;;;;;8.60;8.30;;;13.90;1.00;;;;;;4884672;29;20485;-82
2022/11/03 13:10:02;;;;;;;8.17;7.80;;;13.90;1.00;;;;;;4886658;29;20521;-82
2022/11/03 13:12:33;;;;;;;7.77;7.47;;;14.00;1.00;;;;;;4886142;29;20548;-82
2022/11/03 13:15:04;;;;;;;8.80;8.40;;;14.00;1.00;;;;;;4884128;29;20481;-83
2022/11/03 13:17:32;;;;;;;8.87;8.53;;;14.00;1.00;;;;;;4887832;29;20555;-81
2022/11/03 13:20:21;;;;;;;9.37;8.77;;;14.00;1.00;;;;;;4894049;29;21000;-82
2022/11/03 13:22:49;;;;;;;10.07;9.47;;;14.10;1.00;;;;;;4886843;29;20481;-81
2022/11/03 13:25:18;;;;;;;9.73;9.30;;;14.00;1.00;;;;;;4888625;29;20526;-83
2022/11/03 13:27:52;;;;;;;8.87;8.50;;;14.00;1.00;;;;;;4888747;29;20508;-79
2022/11/03 13:30:21;;;;;;;9.03;8.60;;;14.00;1.00;;;;;;4887263;29;20485;-82
2022/11/03 13:32:49;;;;;;;9.37;8.87;;;14.10;1.00;;;;;;4886175;29;20565;-82
2022/11/03 13:35:17;;;;;;;9.40;8.90;;;14.00;1.00;;;;;;4885216;29;20572;-80
2022/11/03 13:37:46;;;;;;;9.23;8.83;;;14.00;1.00;;;;;;4881359;29;21116;-82